Time;durP1;ratioP1;P1;durP2;ratioP2;P2;SDS_P1;SDS_P2;PMS_P1;PMS_P2;Temp;Humidity;BMP_temperature;BMP_pressure;BME280_temperature;BME280_humidity;BME280_pressure;Samples;Min_cycle;Max_cycle;Signal;HPM_P1;HPM_P2
2021/08/25 00:00:00;;;;;;;6.00;1.90;;;;;;;11.44;82.32;101946.67;111462;1202;72418;-81
2021/08/25 00:02:27;;;;;;;6.30;2.30;;;;;;;11.41;82.61;101940.20;111449;1203;61276;-84
2021/08/25 00:04:54;;;;;;;6.10;1.90;;;;;;;11.38;82.91;101936.95;111395;1202;62152;-82
2021/08/25 00:07:22;;;;;;;8.60;2.90;;;;;;;11.35;83.31;101932.69;111552;1196;76339;-80
2021/08/25 00:09:49;;;;;;;3.60;2.20;;;;;;;11.32;83.15;101931.26;111400;1202;71075;-84
2021/08/25 00:12:15;;;;;;;5.90;2.50;;;;;;;11.27;83.09;101926.25;111421;1195;61069;-83
2021/08/25 00:14:43;;;;;;;6.00;2.40;;;;;;;11.22;83.00;101924.95;111259;1200;61190;-82
2021/08/25 00:17:10;;;;;;;5.20;2.50;;;;;;;11.18;83.40;101923.31;111240;1202;61000;-82
2021/08/25 00:19:37;;;;;;;4.80;1.90;;;;;;;11.15;83.38;101922.75;111431;1195;74476;-82
2021/08/25 00:22:04;;;;;;;7.00;1.90;;;;;;;11.12;83.33;101922.20;111520;1195;69946;-83
2021/08/25 00:24:30;;;;;;;5.90;2.20;;;;;;;11.06;83.94;101919.75;111488;1202;75131;-82
2021/08/25 00:26:57;;;;;;;4.70;2.30;;;;;;;11.00;84.25;101920.63;111268;1204;61031;-82
2021/08/25 00:29:23;;;;;;;5.90;2.40;;;;;;;10.95;84.75;101922.39;111907;1201;61696;-82
2021/08/25 00:31:50;;;;;;;5.80;2.20;;;;;;;10.91;84.94;101923.26;111777;1201;61069;-82
2021/08/25 00:34:16;;;;;;;3.80;2.00;;;;;;;10.91;85.14;101926.37;111525;1202;61082;-82
2021/08/25 00:36:43;;;;;;;3.90;2.00;;;;;;;10.90;85.29;101920.09;111482;1202;61042;-82
2021/08/25 00:39:09;;;;;;;8.30;2.50;;;;;;;10.89;85.40;101914.79;111453;1195;61114;-82
2021/08/25 00:41:36;;;;;;;7.80;2.20;;;;;;;10.90;85.26;101913.50;111486;1195;61002;-81
2021/08/25 00:44:02;;;;;;;5.50;2.20;;;;;;;10.88;85.02;101912.07;111470;1202;61049;-81
2021/08/25 00:46:35;;;;;;;4.00;2.20;;;;;;;10.85;85.34;101910.42;111492;1201;61073;-81
2021/08/25 00:49:02;;;;;;;5.10;3.00;;;;;;;10.81;85.50;101908.69;111461;1201;73587;-80
2021/08/25 00:51:29;;;;;;;7.40;3.00;;;;;;;10.75;85.62;101907.29;111364;1203;61642;-81
2021/08/25 00:53:57;;;;;;;5.00;2.30;;;;;;;10.70;85.94;101903.04;111497;1195;61576;-84
2021/08/25 00:56:26;;;;;;;4.20;2.10;;;;;;;10.64;86.02;101900.55;111460;1202;75793;-83
2021/08/25 00:58:54;;;;;;;5.60;2.30;;;;;;;10.59;86.00;101895.86;111487;1202;72109;-81
2021/08/25 01:01:51;;;;;;;6.40;2.60;;;;;;;10.54;86.18;101896.36;111749;1202;74233;-81
2021/08/25 01:04:25;;;;;;;6.00;2.60;;;;;;;10.50;86.32;101895.85;111547;1195;61623;-82
2021/08/25 01:06:51;;;;;;;5.80;2.30;;;;;;;10.49;86.93;101890.71;111620;1202;61081;-83
2021/08/25 01:09:18;;;;;;;6.60;2.80;;;;;;;10.49;87.41;101888.06;111415;1202;61081;-82
2021/08/25 01:11:47;;;;;;;4.10;2.20;;;;;;;10.48;87.52;101885.66;111582;1202;70939;-81
2021/08/25 01:14:15;;;;;;;5.90;2.90;;;;;;;10.46;87.84;101883.58;111597;1201;73053;-80
2021/08/25 01:16:44;;;;;;;5.90;2.70;;;;;;;10.44;87.57;101879.14;111758;1204;63098;-82
2021/08/25 01:19:15;;;;;;;5.70;2.80;;;;;;;10.41;87.87;101876.89;111669;1200;61014;-82
2021/08/25 01:21:44;;;;;;;7.20;3.30;;;;;;;10.40;88.07;101871.91;111483;1202;75502;-82
2021/08/25 01:24:13;;;;;;;6.60;2.20;;;;;;;10.39;88.34;101868.61;111563;1200;71908;-81
2021/08/25 01:26:41;;;;;;;5.40;2.50;;;;;;;10.38;88.59;101864.98;111486;1202;72361;-81
2021/08/25 01:29:21;;;;;;;6.10;2.40;;;;;;;10.37;88.43;101861.38;111568;1200;62647;-81
2021/08/25 01:31:50;;;;;;;5.30;2.90;;;;;;;10.36;88.67;101857.74;111460;1201;61073;-82
2021/08/25 01:34:16;;;;;;;5.40;2.60;;;;;;;10.36;88.90;101854.54;111404;1202;75663;-81
2021/08/25 01:36:43;;;;;;;6.00;2.60;;;;;;;10.36;88.86;101853.70;111418;1202;61108;-83
2021/08/25 01:39:10;;;;;;;7.10;2.80;;;;;;;10.35;88.87;101851.80;111435;1201;73856;-81
2021/08/25 01:41:37;;;;;;;5.00;2.70;;;;;;;10.34;88.80;101850.90;111364;1200;63068;-81
2021/08/25 01:44:03;;;;;;;6.30;2.90;;;;;;;10.32;88.55;101844.86;111370;1202;61781;-81
2021/08/25 01:46:35;;;;;;;6.70;2.90;;;;;;;10.30;88.80;101840.88;111208;1203;74686;-82
2021/08/25 01:49:07;;;;;;;8.20;2.30;;;;;;;10.29;88.86;101841.63;111409;1196;71056;-81
2021/08/25 01:51:38;;;;;;;7.60;2.70;;;;;;;10.27;88.86;101842.34;111413;1201;72622;-81
2021/08/25 01:54:06;;;;;;;5.20;2.50;;;;;;;10.26;88.81;101842.09;111857;1201;61152;-81
2021/08/25 01:56:36;;;;;;;5.10;2.50;;;;;;;10.23;88.76;101845.69;111199;1198;60995;-81
2021/08/25 01:59:04;;;;;;;4.10;2.40;;;;;;;10.19;89.12;101845.36;111350;1204;61090;-81
2021/08/25 02:01:30;;;;;;;5.40;2.50;;;;;;;10.14;89.15;101840.66;111468;1202;70907;-81
2021/08/25 02:03:58;;;;;;;8.70;2.40;;;;;;;10.10;89.32;101832.92;111443;1201;72583;-79
2021/08/25 02:06:25;;;;;;;7.40;2.60;;;;;;;10.09;89.68;101829.95;111415;1202;61859;-82
2021/08/25 02:08:52;;;;;;;4.70;2.20;;;;;;;10.08;89.95;101820.53;111336;1201;61094;-81
2021/08/25 02:11:19;;;;;;;6.70;2.80;;;;;;;10.08;89.93;101818.95;111384;1202;74557;-81
2021/08/25 02:13:46;;;;;;;8.70;2.90;;;;;;;10.08;89.59;101814.79;111336;1204;71476;-81
2021/08/25 02:16:13;;;;;;;6.20;2.40;;;;;;;10.05;89.51;101815.21;111393;1202;73659;-82
2021/08/25 02:18:40;;;;;;;4.80;2.30;;;;;;;10.01;89.52;101814.01;111384;1202;61077;-81
2021/08/25 02:21:06;;;;;;;5.80;2.60;;;;;;;9.95;89.82;101815.77;111278;1195;61944;-82
2021/08/25 02:23:33;;;;;;;6.30;2.30;;;;;;;9.92;90.04;101813.98;111327;1195;75551;-82
2021/08/25 02:26:00;;;;;;;6.70;2.80;;;;;;;9.89;90.17;101807.48;111549;1201;72624;-82
2021/08/25 02:28:26;;;;;;;7.80;3.10;;;;;;;9.88;90.57;101802.45;111451;1202;72303;-83
2021/08/25 02:30:53;;;;;;;5.10;2.30;;;;;;;9.88;90.73;101801.20;111492;1195;61079;-83
2021/08/25 02:33:20;;;;;;;5.50;2.70;;;;;;;9.90;90.87;101803.17;111370;1200;61141;-84
2021/08/25 02:35:46;;;;;;;5.30;2.70;;;;;;;9.89;90.47;101800.95;111415;1200;75701;-82
2021/08/25 02:38:13;;;;;;;4.40;2.10;;;;;;;9.89;90.36;101798.02;111342;1195;71036;-81
2021/08/25 02:40:40;;;;;;;4.40;2.20;;;;;;;9.88;90.45;101801.45;111313;1201;72441;-82
2021/08/25 02:43:06;;;;;;;5.20;2.30;;;;;;;9.85;90.08;101798.02;111417;1201;62072;-80
2021/08/25 02:45:33;;;;;;;5.50;2.20;;;;;;;9.83;90.28;101794.46;111373;1195;60950;-79
2021/08/25 02:47:59;;;;;;;4.60;2.10;;;;;;;9.80;89.78;101792.09;111423;1201;61063;-80
2021/08/25 02:50:26;;;;;;;5.60;2.60;;;;;;;9.74;89.82;101788.91;111436;1202;61077;-81
2021/08/25 02:52:52;;;;;;;6.30;2.90;;;;;;;9.72;90.56;101784.67;111396;1201;61455;-81
2021/08/25 02:55:19;;;;;;;6.60;2.70;;;;;;;9.71;90.35;101786.17;111457;1201;61022;-81
2021/08/25 02:57:46;;;;;;;7.30;2.60;;;;;;;9.68;90.46;101785.04;111431;1195;61002;-80
2021/08/25 03:00:13;;;;;;;8.10;2.50;;;;;;;9.66;90.46;101781.39;111302;1202;61008;-81
2021/08/25 03:02:40;;;;;;;5.60;2.60;;;;;;;9.64;90.86;101778.70;111392;1202;70016;-81
2021/08/25 03:05:07;;;;;;;8.50;2.20;;;;;;;9.63;90.68;101776.70;111439;1205;72611;-81
2021/08/25 03:07:33;;;;;;;3.20;2.00;;;;;;;9.61;90.49;101771.21;111226;1196;62084;-81
2021/08/25 03:10:00;;;;;;;6.90;2.10;;;;;;;9.59;90.45;101761.31;111617;1202;60965;-82
2021/08/25 03:12:26;;;;;;;3.60;2.10;;;;;;;9.58;90.92;101755.60;111429;1198;74450;-82
2021/08/25 03:14:53;;;;;;;5.40;2.10;;;;;;;9.58;90.98;101752.09;111414;1202;61002;-82
2021/08/25 03:17:19;;;;;;;5.30;2.40;;;;;;;9.58;90.85;101752.81;111603;1204;61438;-81
2021/08/25 03:19:46;;;;;;;5.80;2.40;;;;;;;9.56;90.71;101752.28;111674;1204;61073;-81
2021/08/25 03:22:12;;;;;;;6.00;2.60;;;;;;;9.53;90.41;101744.09;111462;1194;61079;-84
2021/08/25 03:24:39;;;;;;;5.20;2.60;;;;;;;9.47;90.32;101745.14;111395;1202;61041;-83
2021/08/25 03:27:05;;;;;;;5.60;2.10;;;;;;;9.43;90.74;101744.89;111599;1202;61103;-82
2021/08/25 03:29:32;;;;;;;7.30;2.70;;;;;;;9.41;91.35;101737.61;111579;1202;61095;-81
2021/08/25 03:31:59;;;;;;;5.10;2.50;;;;;;;9.41;91.63;101739.58;111619;1196;61168;-82
2021/08/25 03:34:25;;;;;;;5.30;2.40;;;;;;;9.39;91.31;101736.52;111657;1195;61344;-82
2021/08/25 03:36:52;;;;;;;6.90;2.70;;;;;;;9.39;91.47;101735.48;111331;1204;75498;-81
2021/08/25 03:39:18;;;;;;;7.20;3.00;;;;;;;9.39;91.67;101732.46;111339;1205;61076;-81
2021/08/25 03:41:45;;;;;;;5.80;2.70;;;;;;;9.39;92.01;101729.27;111451;1202;73688;-81
2021/08/25 03:44:12;;;;;;;5.90;2.90;;;;;;;9.39;91.99;101731.73;111335;1205;60998;-82
2021/08/25 03:46:38;;;;;;;5.90;2.50;;;;;;;9.37;91.90;101731.36;111360;1202;61059;-81
2021/08/25 03:49:04;;;;;;;5.10;2.50;;;;;;;9.37;91.82;101730.32;111328;1204;61165;-81
2021/08/25 03:51:31;;;;;;;9.70;2.80;;;;;;;9.35;91.83;101730.17;111425;1203;61070;-81
2021/08/25 03:53:57;;;;;;;4.70;2.70;;;;;;;9.33;92.05;101733.20;111321;1202;61092;-81
2021/08/25 03:56:24;;;;;;;6.50;2.80;;;;;;;9.31;92.32;101733.36;111379;1202;61092;-81
2021/08/25 03:58:51;;;;;;;5.20;2.80;;;;;;;9.28;92.61;101735.40;111430;1203;61085;-82
2021/08/25 04:01:17;;;;;;;5.80;2.70;;;;;;;9.29;92.96;101737.80;111449;1202;61086;-82
2021/08/25 04:03:44;;;;;;;4.30;2.60;;;;;;;9.30;93.30;101739.08;111529;1195;72044;-83
2021/08/25 04:06:10;;;;;;;3.10;1.70;;;;;;;9.32;93.23;101736.12;111356;1202;61085;-82
2021/08/25 04:08:37;;;;;;;5.90;2.50;;;;;;;9.33;92.88;101737.11;111310;1205;61028;-81
2021/08/25 04:11:03;;;;;;;5.10;2.60;;;;;;;9.34;93.18;101737.88;111377;1198;61091;-83
2021/08/25 04:13:30;;;;;;;6.10;3.20;;;;;;;9.32;92.47;101738.90;111426;1202;61107;-82
2021/08/25 04:15:56;;;;;;;5.40;2.10;;;;;;;9.31;92.79;101739.53;111501;1200;61011;-83
2021/08/25 04:18:25;;;;;;;6.10;3.00;;;;;;;9.32;93.13;101741.95;111367;1202;61104;-82
2021/08/25 04:20:52;;;;;;;5.30;2.40;;;;;;;9.31;93.08;101736.24;111395;1202;62866;-81
2021/08/25 04:23:19;;;;;;;4.20;2.40;;;;;;;9.29;92.95;101732.20;111564;1195;60976;-82
2021/08/25 04:25:45;;;;;;;5.70;2.50;;;;;;;9.27;93.14;101728.24;111522;1202;74541;-82
2021/08/25 04:28:12;;;;;;;7.60;2.80;;;;;;;9.29;93.53;101729.55;111512;1200;72553;-82
2021/08/25 04:30:38;;;;;;;5.40;2.70;;;;;;;9.29;94.22;101728.77;111412;1199;61073;-82
2021/08/25 04:33:05;;;;;;;9.20;3.20;;;;;;;9.31;94.44;101726.90;111472;1202;61527;-81
2021/08/25 04:35:31;;;;;;;5.60;3.00;;;;;;;9.33;94.50;101723.31;111556;1195;61031;-81
2021/08/25 04:37:58;;;;;;;6.10;2.60;;;;;;;9.36;94.69;101722.66;111427;1202;62160;-82
2021/08/25 04:40:24;;;;;;;7.20;2.80;;;;;;;9.40;94.40;101718.27;111453;1202;61047;-82
2021/08/25 04:42:51;;;;;;;6.70;3.00;;;;;;;9.45;94.59;101721.13;111390;1202;61069;-83
2021/08/25 04:45:17;;;;;;;5.10;2.90;;;;;;;9.52;94.60;101717.02;111357;1202;61068;-81
2021/08/25 04:47:44;;;;;;;4.80;2.40;;;;;;;9.59;94.70;101715.41;111564;1202;61085;-86
2021/08/25 04:50:11;;;;;;;6.20;2.60;;;;;;;9.67;94.25;101712.19;111602;1205;74460;-91
2021/08/25 04:52:38;;;;;;;8.20;2.80;;;;;;;9.76;94.30;101717.52;111721;1197;71341;-86
2021/08/25 04:55:06;;;;;;;7.10;3.00;;;;;;;9.86;94.10;101717.17;111864;1205;72682;-86
2021/08/25 04:57:33;;;;;;;6.30;2.90;;;;;;;9.95;93.89;101715.77;111864;1204;61176;-88
2021/08/25 04:59:59;;;;;;;9.20;3.50;;;;;;;10.03;93.56;101711.45;111654;1204;61015;-87
2021/08/25 05:02:26;;;;;;;7.50;3.30;;;;;;;10.11;93.34;101708.25;112024;1202;75331;-81
2021/08/25 05:04:52;;;;;;;9.90;2.90;;;;;;;10.18;92.98;101708.61;111667;1202;74518;-82
2021/08/25 05:07:19;;;;;;;6.50;2.70;;;;;;;10.26;92.93;101708.94;111366;1200;61244;-81
2021/08/25 05:09:45;;;;;;;7.80;2.70;;;;;;;10.35;92.97;101702.80;111442;1195;61112;-81
2021/08/25 05:12:12;;;;;;;6.50;3.40;;;;;;;10.45;92.60;101697.41;111459;1202;61126;-83
2021/08/25 05:14:38;;;;;;;8.40;3.50;;;;;;;10.53;92.58;101696.93;111419;1204;61682;-73
2021/08/25 05:17:05;;;;;;;5.10;2.70;;;;;;;10.60;92.42;101693.60;110846;1203;61095;-73
2021/08/25 05:19:31;;;;;;;7.30;2.80;;;;;;;10.67;92.44;101685.70;110876;1203;60974;-71
2021/08/25 05:21:58;;;;;;;9.60;2.90;;;;;;;10.77;92.36;101678.00;110995;1202;61156;-72
2021/08/25 05:24:24;;;;;;;9.20;3.20;;;;;;;10.87;92.04;101677.91;111115;1202;61794;-75
2021/08/25 05:26:51;;;;;;;7.00;3.30;;;;;;;10.95;91.81;101684.66;110781;1202;62364;-74
2021/08/25 05:29:18;;;;;;;5.70;2.90;;;;;;;11.02;91.42;101681.83;110840;1202;61146;-76
2021/08/25 05:31:44;;;;;;;7.10;3.40;;;;;;;11.08;91.33;101680.88;111000;1195;61844;-72
2021/08/25 05:34:12;;;;;;;9.70;3.30;;;;;;;11.15;91.27;101683.05;110856;1202;61867;-71
2021/08/25 05:36:39;;;;;;;5.60;2.50;;;;;;;11.21;91.16;101683.08;110957;1204;61073;-73
2021/08/25 05:39:06;;;;;;;8.00;2.70;;;;;;;11.25;90.71;101685.35;111144;1202;75949;-71
2021/08/25 05:41:33;;;;;;;13.10;2.90;;;;;;;11.31;90.91;101685.83;110920;1202;61086;-74
2021/08/25 05:44:03;;;;;;;4.80;2.90;;;;;;;11.38;90.67;101688.44;111410;1203;72960;-74
2021/08/25 05:46:33;;;;;;;6.10;2.90;;;;;;;11.48;90.42;101690.22;111127;1202;63262;-73
2021/08/25 05:49:00;;;;;;;6.10;2.80;;;;;;;11.52;90.23;101692.77;111165;1195;61256;-72
2021/08/25 05:51:27;;;;;;;6.60;3.10;;;;;;;11.57;90.14;101691.71;111148;1202;76359;-72
2021/08/25 05:53:53;;;;;;;10.20;3.50;;;;;;;11.65;89.91;101689.73;110808;1202;61006;-71
2021/08/25 05:56:20;;;;;;;5.80;2.80;;;;;;;11.72;89.99;101688.77;110916;1195;61101;-74
2021/08/25 05:58:46;;;;;;;7.40;2.90;;;;;;;11.79;89.88;101687.62;111000;1202;61059;-72
2021/08/25 06:01:14;;;;;;;7.20;3.20;;;;;;;11.87;89.75;101686.20;111183;1202;61399;-72
2021/08/25 06:03:41;;;;;;;5.90;3.20;;;;;;;11.94;89.69;101685.70;110986;1203;75767;-74
2021/08/25 06:06:11;;;;;;;7.00;2.30;;;;;;;12.01;89.46;101676.24;111072;1202;69899;-72
2021/08/25 06:08:38;;;;;;;8.60;3.20;;;;;;;12.08;89.38;101671.45;111034;1203;73514;-73
2021/08/25 06:11:05;;;;;;;8.20;3.50;;;;;;;12.16;89.30;101668.68;111130;1199;60977;-72
2021/08/25 06:13:36;;;;;;;8.20;2.60;;;;;;;12.22;89.40;101666.40;110820;1202;61083;-73
2021/08/25 06:16:02;;;;;;;9.50;3.20;;;;;;;12.30;89.58;101660.84;110896;1202;61095;-71
2021/08/25 06:18:29;;;;;;;6.90;3.00;;;;;;;12.36;89.59;101656.83;111098;1202;70914;-71
2021/08/25 06:20:55;;;;;;;4.30;2.30;;;;;;;12.42;89.43;101658.04;111059;1202;61086;-72
2021/08/25 06:23:22;;;;;;;5.90;3.60;;;;;;;12.46;89.24;101646.47;111010;1202;60958;-71
2021/08/25 06:25:50;;;;;;;4.50;2.90;;;;;;;12.56;89.32;101645.98;111047;1202;61094;-73
2021/08/25 06:28:16;;;;;;;5.90;2.80;;;;;;;12.68;89.10;101648.92;111169;1202;75348;-73
2021/08/25 06:30:43;;;;;;;18.00;9.70;;;;;;;12.78;88.77;101645.66;111178;1202;60974;-72
2021/08/25 06:33:10;;;;;;;6.70;2.70;;;;;;;12.89;88.52;101651.43;110884;1204;72325;-71
2021/08/25 06:35:37;;;;;;;11.40;5.20;;;;;;;12.98;87.93;101650.22;111146;1200;61056;-71
2021/08/25 06:38:03;;;;;;;10.10;3.90;;;;;;;13.07;86.96;101647.35;111507;1195;61891;-73
2021/08/25 06:40:32;;;;;;;11.60;5.40;;;;;;;13.16;86.65;101654.41;111151;1203;75175;-70
2021/08/25 06:42:59;;;;;;;10.40;4.40;;;;;;;13.25;86.49;101655.30;111125;1202;72206;-71
2021/08/25 06:45:26;;;;;;;5.50;2.70;;;;;;;13.35;85.97;101653.58;110936;1202;72658;-71
2021/08/25 06:47:53;;;;;;;8.20;3.70;;;;;;;13.41;85.32;101657.17;110838;1203;62768;-70
2021/08/25 06:50:19;;;;;;;4.90;2.60;;;;;;;13.49;84.81;101657.18;110970;1202;61008;-73
2021/08/25 06:52:47;;;;;;;6.10;2.60;;;;;;;13.56;84.14;101657.34;111132;1201;61092;-72
2021/08/25 06:55:14;;;;;;;6.20;2.80;;;;;;;13.62;84.17;101655.23;111257;1202;72116;-71
2021/08/25 06:57:41;;;;;;;5.20;2.30;;;;;;;13.68;83.40;101660.76;111186;1195;72711;-71
2021/08/25 07:00:08;;;;;;;8.80;3.00;;;;;;;13.72;82.89;101656.95;110979;1202;61191;-72
2021/08/25 07:02:34;;;;;;;13.20;4.60;;;;;;;13.79;82.96;101654.35;111133;1202;61402;-70
2021/08/25 07:05:01;;;;;;;10.60;3.40;;;;;;;13.89;82.39;101650.90;110922;1202;74719;-73
2021/08/25 07:07:28;;;;;;;6.50;2.80;;;;;;;14.00;82.09;101648.55;110900;1202;71986;-72
2021/08/25 07:09:54;;;;;;;7.00;3.40;;;;;;;14.07;81.12;101649.63;110858;1202;61120;-71
2021/08/25 07:12:21;;;;;;;12.70;5.40;;;;;;;14.12;80.89;101641.16;110866;1201;59709;-71
2021/08/25 07:14:48;;;;;;;9.20;4.80;;;;;;;14.18;80.49;101640.85;110887;1203;61229;-72
2021/08/25 07:17:15;;;;;;;15.20;6.90;;;;;;;14.24;80.00;101641.36;110973;1199;61141;-70
2021/08/25 07:19:42;;;;;;;7.60;3.30;;;;;;;14.34;80.19;101641.21;110952;1195;72879;-72
2021/08/25 07:22:09;;;;;;;7.20;2.90;;;;;;;14.44;79.87;101633.83;110847;1204;72606;-70
2021/08/25 07:24:35;;;;;;;6.60;2.40;;;;;;;14.57;79.68;101629.66;110852;1203;61117;-73
2021/08/25 07:27:02;;;;;;;4.50;2.00;;;;;;;14.67;78.30;101629.69;110908;1195;61085;-72
2021/08/25 07:29:29;;;;;;;7.70;3.00;;;;;;;14.77;77.90;101627.05;111006;1203;75021;-70
2021/08/25 07:31:55;;;;;;;5.90;2.10;;;;;;;14.94;77.30;101622.45;110977;1204;71014;-71
2021/08/25 07:34:22;;;;;;;4.80;2.10;;;;;;;15.14;76.03;101624.90;111276;1202;61176;-73
2021/08/25 07:36:48;;;;;;;12.80;6.00;;;;;;;15.30;75.63;101624.81;111210;1202;61018;-71
2021/08/25 07:39:15;;;;;;;4.50;2.10;;;;;;;15.53;75.02;101621.54;111269;1201;61002;-72
2021/08/25 07:41:41;;;;;;;10.40;5.50;;;;;;;15.73;73.71;101622.65;111300;1203;61101;-74
2021/08/25 07:44:08;;;;;;;5.60;2.40;;;;;;;15.87;72.87;101623.17;111239;1202;61095;-73
2021/08/25 07:46:34;;;;;;;7.20;3.30;;;;;;;15.94;72.18;101622.50;111283;1202;61095;-73
2021/08/25 07:49:03;;;;;;;7.10;3.10;;;;;;;16.05;72.06;101621.56;111169;1200;61088;-73
2021/08/25 07:51:29;;;;;;;8.10;3.00;;;;;;;16.13;71.36;101619.68;111378;1201;61395;-74
2021/08/25 07:53:59;;;;;;;5.50;2.80;;;;;;;16.14;70.56;101616.95;111425;1202;74423;-73
2021/08/25 07:56:25;;;;;;;6.60;2.80;;;;;;;16.18;71.01;101615.48;111243;1204;71220;-73
2021/08/25 07:58:52;;;;;;;5.30;2.70;;;;;;;16.26;71.19;101608.83;111271;1202;61691;-70
2021/08/25 08:01:18;;;;;;;6.30;2.70;;;;;;;16.36;70.21;101608.43;111307;1202;62053;-73
2021/08/25 08:03:45;;;;;;;4.10;2.10;;;;;;;16.42;69.32;101603.52;111251;1202;61780;-72
2021/08/25 08:06:12;;;;;;;5.10;2.90;;;;;;;16.50;68.82;101600.98;111334;1202;74903;-71
2021/08/25 08:08:38;;;;;;;6.40;2.20;;;;;;;16.59;68.42;101601.65;111274;1202;61643;-71
2021/08/25 08:11:05;;;;;;;5.90;2.40;;;;;;;16.67;68.42;101598.23;111209;1203;61044;-72
2021/08/25 08:13:31;;;;;;;15.20;8.30;;;;;;;16.84;68.60;101591.77;111244;1196;61123;-71
2021/08/25 08:15:58;;;;;;;7.10;2.50;;;;;;;17.01;67.67;101594.02;111118;1202;62331;-72
2021/08/25 08:18:34;;;;;;;6.30;2.50;;;;;;;17.13;65.59;101588.73;111329;1195;74598;-70
2021/08/25 08:21:03;;;;;;;9.10;2.20;;;;;;;17.24;65.04;101583.93;111180;1202;71178;-71
2021/08/25 08:23:31;;;;;;;6.20;2.40;;;;;;;17.28;63.64;101585.77;112517;1195;74038;-71
2021/08/25 08:25:58;;;;;;;7.70;2.10;;;;;;;17.34;63.92;101582.16;111215;1201;61043;-73
2021/08/25 08:28:25;;;;;;;9.10;2.30;;;;;;;17.39;62.73;101583.06;111116;1203;61102;-72
2021/08/25 08:30:52;;;;;;;5.50;1.90;;;;;;;17.43;63.39;101581.60;111257;1202;75702;-73
2021/08/25 08:33:18;;;;;;;5.80;2.30;;;;;;;17.50;63.30;101576.02;111289;1202;70265;-73
2021/08/25 08:35:45;;;;;;;5.80;1.90;;;;;;;17.58;62.59;101572.43;111351;1202;61683;-71
2021/08/25 08:38:11;;;;;;;8.30;2.70;;;;;;;17.51;61.06;101577.05;111358;1195;61050;-72
2021/08/25 08:40:38;;;;;;;8.30;3.00;;;;;;;17.56;61.00;101564.81;111272;1202;61644;-71
2021/08/25 08:43:09;;;;;;;6.10;2.90;;;;;;;17.59;61.11;101557.28;111258;1202;61108;-72
2021/08/25 08:45:42;;;;;;;4.50;2.00;;;;;;;17.52;60.97;101559.32;111340;1202;72178;-72
2021/08/25 08:48:10;;;;;;;5.60;2.30;;;;;;;17.57;61.20;101554.80;111261;1202;72477;-72
2021/08/25 08:50:39;;;;;;;4.10;2.10;;;;;;;17.77;60.83;101557.80;111293;1202;61518;-71
2021/08/25 08:53:08;;;;;;;4.70;2.40;;;;;;;17.96;59.94;101555.45;111443;1195;61085;-71
2021/08/25 08:55:36;;;;;;;4.80;2.30;;;;;;;18.13;58.78;101556.27;111331;1202;74647;-70
2021/08/25 08:58:03;;;;;;;5.90;3.10;;;;;;;18.20;58.57;101551.25;111297;1202;71955;-72
2021/08/25 09:00:29;;;;;;;12.90;2.50;;;;;;;18.24;58.94;101543.96;111265;1198;73937;-72
2021/08/25 09:02:56;;;;;;;16.50;7.00;;;;;;;18.30;59.07;101541.21;111292;1203;61253;-73
2021/08/25 09:05:27;;;;;;;3.70;1.90;;;;;;;18.38;58.48;101539.65;111085;1203;61169;-73
2021/08/25 09:07:58;;;;;;;3.10;1.60;;;;;;;18.36;57.07;101543.38;111118;1202;74544;-73
2021/08/25 09:10:30;;;;;;;4.30;2.10;;;;;;;18.26;56.92;101540.38;110780;1202;71131;-72
2021/08/25 09:13:06;;;;;;;7.40;2.80;;;;;;;18.24;57.00;101531.83;110876;1202;72134;-71
2021/08/25 09:15:39;;;;;;;3.50;1.80;;;;;;;18.29;58.05;101528.36;110866;1202;62187;-71
2021/08/25 09:18:09;;;;;;;3.60;1.50;;;;;;;18.41;58.30;101529.93;110891;1195;62017;-74
2021/08/25 09:20:49;;;;;;;7.60;3.80;;;;;;;18.53;57.58;101523.16;110925;1202;75532;-72
2021/08/25 09:23:18;;;;;;;3.90;2.10;;;;;;;18.62;57.15;101520.01;110876;1202;71135;-71
2021/08/25 09:25:48;;;;;;;8.10;2.50;;;;;;;18.65;57.21;101515.25;110904;1201;72504;-72
2021/08/25 09:28:18;;;;;;;6.70;2.30;;;;;;;18.75;56.86;101508.34;110983;1203;61361;-74
2021/08/25 09:30:59;;;;;;;5.00;2.00;;;;;;;18.85;57.59;101499.99;111288;1201;62412;-71
2021/08/25 09:33:47;;;;;;;4.80;2.30;;;;;;;18.92;56.57;101497.98;110964;1201;74540;-72
2021/08/25 09:36:19;;;;;;;9.50;4.00;;;;;;;19.08;56.85;101492.07;110879;1203;71150;-73
2021/08/25 09:38:54;;;;;;;4.80;2.00;;;;;;;19.18;55.45;101490.25;110880;1204;72445;-73
2021/08/25 09:41:21;;;;;;;6.80;2.30;;;;;;;19.26;55.60;101487.70;110991;1201;61080;-72
2021/08/25 09:43:51;;;;;;;5.10;2.50;;;;;;;19.35;55.18;101486.46;111065;1202;61104;-73
2021/08/25 09:46:21;;;;;;;5.90;2.80;;;;;;;19.44;55.52;101480.63;111013;1203;73630;-73
2021/08/25 09:48:54;;;;;;;4.70;2.20;;;;;;;19.46;54.18;101481.03;110978;1202;71854;-72
2021/08/25 09:51:23;;;;;;;8.50;4.20;;;;;;;19.47;54.32;101477.42;110922;1202;73529;-72
2021/08/25 09:54:03;;;;;;;6.40;1.60;;;;;;;19.50;54.42;101477.32;110998;1201;62187;-71
2021/08/25 09:56:33;;;;;;;4.40;2.40;;;;;;;19.52;54.29;101468.91;111190;1202;61099;-73
2021/08/25 09:59:04;;;;;;;4.60;2.40;;;;;;;19.54;53.72;101471.02;111070;1202;74485;-73
2021/08/25 10:01:31;;;;;;;5.20;2.60;;;;;;;19.63;54.46;101463.64;111026;1195;70970;-73
2021/08/25 10:04:03;;;;;;;5.30;2.30;;;;;;;19.78;53.72;101464.86;111009;1204;72576;-73
2021/08/25 10:06:29;;;;;;;5.10;2.60;;;;;;;19.82;52.98;101470.67;110796;1201;61068;-73
2021/08/25 10:08:57;;;;;;;3.50;1.80;;;;;;;19.75;52.96;101469.14;111110;1195;61184;-73
2021/08/25 10:11:31;;;;;;;15.20;7.10;;;;;;;19.69;53.42;101459.91;110869;1203;75506;-73
2021/08/25 10:13:59;;;;;;;8.40;3.50;;;;;;;19.79;53.91;101450.55;111226;1202;71135;-72
2021/08/25 10:16:50;;;;;;;2.90;1.60;;;;;;;19.96;53.21;101444.43;110829;1204;72506;-73
2021/08/25 10:19:26;;;;;;;5.50;2.10;;;;;;;20.08;52.39;101440.18;111005;1200;61556;-71
2021/08/25 10:22:00;;;;;;;5.80;2.90;;;;;;;20.11;51.91;101436.55;110898;1202;61141;-73
2021/08/25 10:24:27;;;;;;;6.60;2.30;;;;;;;20.17;51.57;101439.37;110932;1201;75951;-73
2021/08/25 10:26:59;;;;;;;6.60;2.50;;;;;;;20.18;51.01;101432.92;110994;1201;71390;-71
2021/08/25 10:29:27;;;;;;;5.20;2.50;;;;;;;20.21;51.30;101434.85;111017;1202;73187;-74
2021/08/25 10:31:54;;;;;;;13.50;5.30;;;;;;;20.23;51.57;101420.75;110865;1203;61923;-74
2021/08/25 10:34:27;;;;;;;9.00;2.90;;;;;;;20.34;52.09;101415.16;111393;1201;61037;-72
2021/08/25 10:37:26;;;;;;;6.00;3.10;;;;;;;20.54;51.83;101406.43;110862;1204;75404;-74
2021/08/25 10:39:57;;;;;;;5.90;2.40;;;;;;;20.65;50.76;101412.73;111181;1203;72337;-73
2021/08/25 10:42:50;;;;;;;11.80;4.00;;;;;;;20.72;50.91;101404.01;110872;1196;72589;-73
2021/08/25 10:45:43;;;;;;;7.60;3.00;;;;;;;20.85;50.31;101388.59;111249;1203;61345;-73
2021/08/25 10:48:11;;;;;;;5.80;2.30;;;;;;;20.85;49.68;101386.44;111029;1202;61072;-73
2021/08/25 10:50:52;;;;;;;5.50;3.10;;;;;;;20.87;49.66;101381.85;110875;1201;74531;-73
2021/08/25 10:53:27;;;;;;;4.60;2.50;;;;;;;20.87;49.59;101376.34;111229;1201;71949;-73
2021/08/25 10:56:13;;;;;;;3.70;2.00;;;;;;;20.81;49.11;101376.48;111160;1202;72691;-71
2021/08/25 10:58:42;;;;;;;5.30;2.50;;;;;;;20.84;49.13;101366.71;110803;1203;61017;-71
2021/08/25 11:01:33;;;;;;;5.60;2.10;;;;;;;20.90;48.66;101354.54;110973;1202;61060;-74
2021/08/25 11:04:03;;;;;;;6.60;2.40;;;;;;;21.02;48.52;101358.75;111159;1202;74304;-73
2021/08/25 11:06:52;;;;;;;5.30;1.70;;;;;;;21.04;48.10;101351.99;110955;1202;72052;-71
2021/08/25 11:09:23;;;;;;;5.70;2.70;;;;;;;21.05;47.98;101350.41;110928;1202;72775;-72
2021/08/25 11:11:57;;;;;;;5.60;2.00;;;;;;;21.05;46.76;101345.23;111131;1202;61054;-72
2021/08/25 11:14:46;;;;;;;4.80;2.20;;;;;;;20.99;48.42;101330.95;110939;1195;61072;-72
2021/08/25 11:17:15;;;;;;;4.70;2.00;;;;;;;20.92;49.12;101330.27;111020;1202;75304;-72
2021/08/25 11:19:45;;;;;;;4.50;2.70;;;;;;;20.97;49.55;101318.27;111322;1202;71947;-73
2021/08/25 11:22:24;;;;;;;3.60;1.70;;;;;;;21.05;49.20;101308.54;111044;1203;73619;-72
2021/08/25 11:24:53;;;;;;;7.80;3.30;;;;;;;21.12;48.66;101306.52;111233;1202;61050;-73